Vaaraa aiheuttavia sääilmiöitä ei ole odotettavissa.    Ei varoituksia

Webkamera Lisätietoa Webcam


Sadetutka Lisätietoa rain snow radar


Yksityisiä sääasemia lähellä:

Sääasema Ruovesi, Lehtissaari

Sääasema Juupajoki

Sääasema Orivesi, Hieta

Sääasema Muurame

Sääasema Jyväskylä

Sääasema Tampere

Sääasema Vihtavuori


Löydät sääaseman tiedot myös:

Finland Weather Exchange

European Weather Network

Weather Underground

AWEKAS



Säätiedot lähimmiltä METAR asemilta

   
EFHA - Halli (Fin-Afb), Finland
Etäisyys asemalta: Kaakko 25 km
Päivitetty: 23.01.2018 11:20
Puolipilvistä  
Puolipilvistä  
   Tuuli: Eteläkaakko 1.5 m/s
Tuuli: Eteläkaakko 1.5 m/s
Lämpötila: -19°C
Tuulen hyytävyys: -23°C
Kastepiste: -21°C
Kosteus: 84%
Ilmanpaine: 1017 hPa
Pilvisyys: Puolipilvistä
Näkyvyys: Enemmän kuin 10 km
Pilvitiedot: Puolipilvistä 1250 m
EFHA 230920Z 15003KT 9999 SCT041 M19/M21 Q1017
EFJY - Jyvaskyla (Mil/Civ), Finland
Etäisyys asemalta: Koillinen 75 km
Päivitetty: 23.01.2018 11:20
Selkeää  
Selkeää  
   Tuuli: Itäkaakko 1 m/s
Tuuli: Itäkaakko 1 m/s
Lämpötila: -23°C
Kastepiste: -25°C
Kosteus: 84%
Ilmanpaine: 1016 hPa
Näkyvyys: Enemmän kuin 10 km
Pilvitiedot: Selkeää
EFJY 230920Z 11002KT CAVOK M23/M25 Q1016
EFTP - Tampere/Pirkkala, Finland
Etäisyys asemalta: Lounas 81 km
Päivitetty: 23.01.2018 11:20
Heikkoa lumisadetta, Melkein pilvistä  
Heikkoa lumisadetta, Melkein pilvistä  
   Tuuli: Etelä 1 m/s
Tuuli: Etelä 1 m/s
Lämpötila: -13°C
Kastepiste: -15°C
Kosteus: 85%
Ilmanpaine: 1019 hPa
Pilvisyys: Melkein pilvistä
Näkyvyys: Enemmän kuin 10 km
Pilvitiedot: Melkein pilvistä 1341 m
EFTP 230920Z 18002KT 9999 -SN BKN044 M13/M15 Q1019
EFSI - Seinajoki-Ilmajoki, Finland
Etäisyys asemalta: Luode 114 km
Päivitetty: 23.01.2018 11:20
Heikkoa lumisadetta, Pilvistä  
Heikkoa lumisadetta, Pilvistä  
   Tuuli: Tyyntä
Tuuli: Tyyntä
Lämpötila: -13°C
Kastepiste: -15°C
Kosteus: 85%
Ilmanpaine: 1017 hPa
Pilvisyys: Pilvistä
Näkyvyys: 3.4 km
Pilvitiedot: Melkein pilvistä 884 m,
Pilvistä 1311 m
EFSI 230920Z AUTO 00000KT 3400 -SN BKN029 OVC043 M13/M15 Q1017
EFMI - Mikkeli, Finland
Etäisyys asemalta: Itäkaakko 147 km
Päivitetty: 23.01.2018 11:20
Heikkoa lumisadetta, Vähäistä pilvisyyttä  
Heikkoa lumisadetta, Vähäistä pilvisyyttä  
   Tuuli: Länsilounas 1 m/s
Tuuli: Länsilounas 1 m/s
Lämpötila: -20°C
Kastepiste: -22°C
Kosteus: 84%
Ilmanpaine: 1018 hPa
Pilvisyys: Vähäistä pilvisyyttä
Näkyvyys: Enemmän kuin 10 km
Pilvitiedot: Vähäistä pilvisyyttä 488 m
EFMI 230920Z AUTO 25002KT 9999 -SN FEW016 M20/M22 Q1018
EFPO - Pori (Mil/Civ), Finland
Etäisyys asemalta: Länsilounas 154 km
Päivitetty: 23.01.2018 11:20
Heikkoa lumisadetta, Melkein pilvistä  
Heikkoa lumisadetta, Melkein pilvistä  
   Tuuli: Eteläkaakko 3.6 m/s
Tuuli: Eteläkaakko 3.6 m/s
Lämpötila: -8°C
Tuulen hyytävyys: -14°C
Kastepiste: -10°C
Kosteus: 86%
Ilmanpaine: 1018 hPa
Pilvisyys: Melkein pilvistä
Näkyvyys: 8 km
Pilvitiedot: Vähäistä pilvisyyttä 518 m,
Melkein pilvistä 1097 m
EFPO 230920Z AUTO 16007KT 8000 -SN FEW017/// BKN036/// M08/M10 Q1018
EFUT - Utti (Fin-Afb), Finland
Etäisyys asemalta: Kaakko 180 km
Päivitetty: 23.01.2018 11:20
Selkeää  
Selkeää  
   Tuuli: Länsiluode 2.1 m/s
Tuuli: Länsiluode 2.1 m/s
Lämpötila: -17°C
Tuulen hyytävyys: -22°C
Kastepiste: -18°C
Kosteus: 92%
Ilmanpaine: 1019 hPa
Näkyvyys: Enemmän kuin 10 km
Pilvitiedot: Selkeää
EFUT 230920Z 29004KT CAVOK M17/M18 Q1019
EFVA - Vaasa, Finland
Etäisyys asemalta: Luode 180 km
Päivitetty: 23.01.2018 11:20
Heikkoa lumisadetta, Pilvistä  
Heikkoa lumisadetta, Pilvistä  
   Tuuli: Kaakko 3.1 m/s
Tuuli: Kaakko 3.1 m/s
Lämpötila: -11°C
Tuulen hyytävyys: -17°C
Kastepiste: -13°C
Kosteus: 85%
Ilmanpaine: 1016 hPa
Pilvisyys: Pilvistä
Näkyvyys: 4.1 km
Pilvitiedot: Pilvistä 579 m
EFVA 230920Z AUTO 14006KT 4100 -SN OVC019/// M11/M13 Q1016
EFHK - Helsinki/Vantaa, Finland
Etäisyys asemalta: Etelä 191 km
Päivitetty: 23.01.2018 11:20
Melkein pilvistä  
Melkein pilvistä  
   Tuuli: Länsiluode 1.5 m/s
Tuuli: Länsiluode 1.5 m/s
Lämpötila: -12°C
Tuulen hyytävyys: -16°C
Kastepiste: -14°C
Kosteus: 85%
Ilmanpaine: 1020 hPa
Pilvisyys: Melkein pilvistä
Näkyvyys: Enemmän kuin 10 km
Pilvitiedot: Melkein pilvistä 1463 m
EFHK 230920Z 29003KT 9999 BKN048 M12/M14 Q1020 NOSIG

Alkuperäinen skripti  Saratoga-weather.org Sovitettu myös templatelle  Weerstation Leuven

Laitteet joita käytämme:

Sääasema
Davis VP2

Sääasemaohjelma
Cumulus

Sääaseman palvelin
HP ProBook 6460b

Palveluntarjoaja
Radicenter

Davis VP2

Cumulus

HP ProBook 6460b

Radicenter




Flag Counter Cumulus Top Weather Sites